Terminal Aerodrome Forecast
Issued by NWS

Home | Current Version | Previous Version | Text Only | Print | Product List | Glossary On
Versions: 1 2 3 4 5 6 7 8 9 10 11 12 13 14 15 16
432
FTUS42 KMLB 230123 AAA
TAFISM
TAF AMD
KISM 230123Z 2301/2324 22016G26KT P6SM VCTS BKN035CB
      TEMPO 2301/2303 24030G40KT 2SM +TSRA BKN025CB
     FM230300 23015G25KT P6SM BKN035
     FM230600 24013G20KT P6SM BKN040
     FM231500 26022G32KT P6SM BKN045=

USA.gov is the U.S. government's official web portal to all federal, state and local government web resources and services.